Salonica, Greece
Current Conditions -  °F | °C
As of 2:50 PM on Sunday 21 Dec 2014 (Local Time) from LGTS Reporting Station
Broken Clouds Broken Clouds  
Wind Chill: 11°   Ceiling: 6000
Heat Index: 11°   Visibility: 6mi
Dew Point:   Wind: 30mph
Humidity: 50%   Direction: 330°NNW
Pressure: 30.15"   Gusts: 46mph
Location:  40.52°N, 22.97°E
Report Text: LGTS 211150Z 33026G40KT 9999 FEW030 BKN060 11/01 Q1021 NOSIG
Loading
Personal Weather Stations






























Interactive Weather Map New forecast layout! Learn more

10-Day Weather Forecast

Advertisements
Track Severe Weather on mobile